Time;durP1;ratioP1;P1;durP2;ratioP2;P2;SDS_P1;SDS_P2;PMS_P1;PMS_P2;Temp;Humidity;BMP_temperature;BMP_pressure;BME280_temperature;BME280_humidity;BME280_pressure;Samples;Min_cycle;Max_cycle;Signal;HPM_P1;HPM_P2
2020/12/09 00:02:47;;;;;;;26.27;18.48;;;3.70;92.20;;;;;;5011360;28;20038;-85
2020/12/09 00:05:18;;;;;;;26.85;19.20;;;3.70;92.10;;;;;;5010688;28;20030;-85
2020/12/09 00:07:44;;;;;;;23.63;16.23;;;3.60;92.10;;;;;;5009967;28;20441;-85
2020/12/09 00:10:12;;;;;;;25.92;17.58;;;3.60;92.10;;;;;;5001847;28;20596;-86
2020/12/09 00:12:38;;;;;;;25.88;17.90;;;3.60;92.10;;;;;;5011361;28;20116;-86
2020/12/09 00:15:09;;;;;;;23.88;17.58;;;3.60;92.10;;;;;;5010839;28;20384;-84
2020/12/09 00:17:35;;;;;;;24.63;17.80;;;3.50;92.10;;;;;;5010429;28;20129;-85
2020/12/09 00:20:02;;;;;;;24.15;16.75;;;3.50;92.00;;;;;;5011181;28;20108;-86
2020/12/09 00:22:31;;;;;;;23.02;17.25;;;3.50;92.00;;;;;;5010375;28;20040;-87
2020/12/09 00:24:57;;;;;;;24.45;16.95;;;3.50;92.00;;;;;;5009776;28;20483;-87
2020/12/09 00:27:23;;;;;;;23.88;17.85;;;3.40;92.00;;;;;;4993158;28;20091;-86
2020/12/09 00:29:49;;;;;;;23.95;16.92;;;3.50;92.10;;;;;;5010280;28;20497;-86
2020/12/09 00:32:14;;;;;;;25.33;17.27;;;3.50;92.10;;;;;;5011363;28;20030;-85
2020/12/09 00:34:40;;;;;;;23.77;17.00;;;3.50;92.10;;;;;;5010223;28;20033;-86
2020/12/09 00:37:06;;;;;;;25.73;17.10;;;3.40;92.10;;;;;;5011779;28;20033;-85
2020/12/09 00:39:32;;;;;;;23.83;17.35;;;3.40;92.10;;;;;;4994517;28;20037;-85
2020/12/09 00:42:00;;;;;;;25.92;17.48;;;3.50;92.10;;;;;;5011268;28;20076;-85
2020/12/09 00:44:26;;;;;;;23.00;16.88;;;3.40;92.10;;;;;;5011542;28;20411;-85
2020/12/09 00:46:52;;;;;;;23.08;16.27;;;3.40;92.00;;;;;;5011367;28;20049;-89
2020/12/09 00:49:18;;;;;;;23.23;16.42;;;3.40;92.00;;;;;;5011539;28;20068;-86
2020/12/09 00:51:51;;;;;;;24.13;17.38;;;3.40;92.00;;;;;;5011506;28;20026;-85
2020/12/09 00:54:34;;;;;;;22.00;15.73;;;3.40;92.00;;;;;;5011024;28;20487;-85
2020/12/09 00:57:02;;;;;;;23.35;16.02;;;3.30;92.00;;;;;;5011418;28;20029;-85
2020/12/09 00:59:30;;;;;;;23.70;16.45;;;3.30;92.00;;;;;;5011152;28;20026;-85
2020/12/09 01:02:07;;;;;;;20.88;15.52;;;3.30;92.00;;;;;;5009860;28;20022;-85
2020/12/09 01:04:36;;;;;;;25.55;17.88;;;3.40;92.00;;;;;;5011031;28;20022;-85
2020/12/09 01:07:04;;;;;;;24.60;16.90;;;3.30;92.00;;;;;;5002781;28;20039;-85
2020/12/09 01:09:30;;;;;;;21.02;15.07;;;3.30;92.00;;;;;;4993330;28;20610;-88
2020/12/09 01:12:01;;;;;;;24.88;17.63;;;3.30;92.00;;;;;;5005278;28;20040;-86
2020/12/09 01:14:39;;;;;;;23.48;16.23;;;3.30;92.00;;;;;;5010260;28;20054;-86
2020/12/09 01:17:04;;;;;;;20.48;15.20;;;3.30;92.00;;;;;;5005345;28;20026;-85
2020/12/09 01:19:30;;;;;;;21.30;15.32;;;3.30;92.00;;;;;;5014960;28;20044;-86
2020/12/09 01:21:58;;;;;;;24.13;15.73;;;3.30;92.00;;;;;;5014265;28;20104;-86
2020/12/09 01:24:28;;;;;;;21.05;15.57;;;3.20;92.00;;;;;;5014768;28;20026;-87
2020/12/09 01:26:57;;;;;;;22.20;16.05;;;3.20;92.00;;;;;;5012799;28;20475;-85
2020/12/09 01:29:26;;;;;;;19.67;14.40;;;3.20;92.00;;;;;;4996859;28;20084;-85
2020/12/09 01:32:04;;;;;;;21.58;15.77;;;3.20;92.00;;;;;;5012353;28;20072;-85
2020/12/09 01:34:32;;;;;;;22.02;15.10;;;3.20;92.10;;;;;;4996890;28;20034;-86
2020/12/09 01:37:01;;;;;;;19.67;14.82;;;3.20;92.10;;;;;;5012640;28;20032;-86
2020/12/09 01:39:29;;;;;;;21.05;15.32;;;3.20;92.10;;;;;;5011933;28;20022;-86
2020/12/09 01:41:58;;;;;;;22.13;15.13;;;3.20;92.10;;;;;;4993321;28;20459;-86
2020/12/09 01:44:32;;;;;;;20.75;14.52;;;3.20;92.10;;;;;;5014075;28;20030;-85
2020/12/09 01:47:11;;;;;;;19.90;14.63;;;3.20;92.10;;;;;;5014859;28;20037;-85
2020/12/09 01:49:44;;;;;;;24.02;16.80;;;3.20;92.10;;;;;;5022191;28;20049;-87
2020/12/09 01:52:15;;;;;;;24.35;17.88;;;3.20;92.10;;;;;;5018238;28;20026;-85
2020/12/09 01:54:44;;;;;;;28.20;18.25;;;3.20;92.10;;;;;;5014319;28;20029;-87
2020/12/09 01:57:14;;;;;;;28.13;18.73;;;3.20;92.10;;;;;;5030196;28;20030;-86
2020/12/09 01:59:43;;;;;;;27.63;18.38;;;3.20;92.10;;;;;;5013453;28;20030;-87
2020/12/09 02:02:09;;;;;;;24.77;17.45;;;3.20;92.20;;;;;;5013786;28;20029;-87
2020/12/09 02:04:36;;;;;;;23.48;16.33;;;3.20;92.10;;;;;;5015499;28;20032;-86
2020/12/09 02:07:04;;;;;;;24.65;17.42;;;3.10;92.10;;;;;;5011461;28;20038;-87
2020/12/09 02:09:36;;;;;;;27.27;17.23;;;3.20;92.10;;;;;;5013700;28;20037;-86
2020/12/09 02:12:04;;;;;;;27.17;17.48;;;3.10;92.00;;;;;;4999813;28;20121;-85
2020/12/09 02:14:37;;;;;;;24.20;17.65;;;3.10;92.00;;;;;;4994160;28;20145;-85
2020/12/09 02:17:05;;;;;;;25.17;17.77;;;3.00;92.00;;;;;;5001558;28;20040;-85
2020/12/09 02:19:31;;;;;;;23.65;16.88;;;3.00;92.00;;;;;;5003964;28;20041;-86
2020/12/09 02:22:11;;;;;;;23.40;16.17;;;3.00;91.90;;;;;;5032909;28;20430;-86
2020/12/09 02:24:37;;;;;;;24.23;16.75;;;3.00;91.90;;;;;;5033672;28;20021;-85
2020/12/09 02:27:08;;;;;;;25.83;17.55;;;3.00;91.90;;;;;;5032648;28;20034;-85
2020/12/09 02:29:36;;;;;;;25.58;17.95;;;2.90;91.90;;;;;;5032672;28;20063;-86
2020/12/09 02:32:04;;;;;;;25.58;16.90;;;2.90;91.90;;;;;;5010195;28;20551;-87
2020/12/09 02:34:30;;;;;;;25.25;17.30;;;2.90;91.90;;;;;;5013079;28;20030;-86
2020/12/09 02:36:56;;;;;;;24.75;16.98;;;2.90;91.90;;;;;;5012136;28;20037;-87
2020/12/09 02:39:31;;;;;;;27.27;17.25;;;2.90;91.90;;;;;;5012974;28;20038;-86
2020/12/09 02:41:56;;;;;;;23.73;16.17;;;2.90;91.90;;;;;;4995706;28;20541;-86
2020/12/09 02:44:25;;;;;;;25.35;17.48;;;2.90;91.90;;;;;;5009907;28;20030;-86
2020/12/09 02:46:50;;;;;;;25.65;17.50;;;2.90;92.00;;;;;;5010149;28;20029;-88
2020/12/09 02:49:16;;;;;;;27.20;18.25;;;2.90;92.00;;;;;;5003320;28;20022;-84
2020/12/09 02:51:45;;;;;;;28.10;18.48;;;2.90;92.00;;;;;;5010011;28;20089;-89
2020/12/09 02:54:13;;;;;;;27.13;18.27;;;2.90;92.00;;;;;;5011041;28;20475;-88
2020/12/09 02:56:42;;;;;;;26.35;18.48;;;2.90;92.10;;;;;;5012117;28;20026;-85
2020/12/09 02:59:08;;;;;;;28.35;18.33;;;2.90;92.10;;;;;;5010464;28;20030;-88
2020/12/09 03:01:36;;;;;;;29.63;18.35;;;2.90;92.10;;;;;;5012275;28;20025;-84
2020/12/09 03:04:05;;;;;;;25.75;18.00;;;2.90;92.10;;;;;;5012276;28;20029;-88
2020/12/09 03:06:33;;;;;;;27.17;17.83;;;3.00;92.20;;;;;;4996836;28;20057;-86
2020/12/09 03:09:02;;;;;;;30.58;19.45;;;3.00;92.20;;;;;;4996523;28;20092;-86
2020/12/09 03:11:29;;;;;;;26.02;17.48;;;3.00;92.20;;;;;;5013485;28;20018;-87
2020/12/09 03:14:03;;;;;;;28.83;18.65;;;3.10;92.30;;;;;;5013884;28;20026;-86
2020/12/09 03:16:28;;;;;;;28.40;18.50;;;3.10;92.30;;;;;;5012687;28;20052;-86
2020/12/09 03:18:57;;;;;;;24.98;17.05;;;3.10;92.30;;;;;;5012883;28;20160;-86
2020/12/09 03:21:25;;;;;;;26.58;16.73;;;3.10;92.30;;;;;;4992418;28;20033;-85
2020/12/09 03:23:50;;;;;;;27.83;17.83;;;3.10;92.30;;;;;;5012271;28;20037;-86
2020/12/09 03:26:16;;;;;;;27.30;17.63;;;3.10;92.30;;;;;;5012395;28;20029;-86
2020/12/09 03:28:45;;;;;;;28.73;18.95;;;3.20;92.40;;;;;;5013400;28;20036;-87
2020/12/09 03:31:16;;;;;;;26.63;17.90;;;3.20;92.40;;;;;;5011270;28;20116;-86
2020/12/09 03:33:42;;;;;;;26.42;17.40;;;3.20;92.40;;;;;;5011897;28;20026;-87
2020/12/09 03:36:07;;;;;;;28.23;18.52;;;3.20;92.40;;;;;;5011840;28;20103;-86
2020/12/09 03:38:33;;;;;;;27.48;18.15;;;3.30;92.50;;;;;;5011350;28;20026;-86
2020/12/09 03:40:59;;;;;;;30.90;19.55;;;3.30;92.50;;;;;;5011216;28;20030;-86
2020/12/09 03:43:25;;;;;;;31.45;20.60;;;3.30;92.50;;;;;;5011513;28;20025;-86
2020/12/09 03:45:55;;;;;;;31.05;21.30;;;3.30;92.50;;;;;;5009530;28;20441;-86
2020/12/09 03:48:21;;;;;;;33.20;21.63;;;3.40;92.50;;;;;;5011396;28;20045;-86
2020/12/09 03:50:47;;;;;;;32.10;21.13;;;3.40;92.50;;;;;;4992002;28;20026;-85
2020/12/09 03:53:13;;;;;;;33.55;22.38;;;3.40;92.50;;;;;;5002596;28;20030;-86
2020/12/09 03:55:41;;;;;;;34.67;23.17;;;3.50;92.50;;;;;;5011583;28;20018;-85
2020/12/09 03:58:07;;;;;;;32.95;21.73;;;3.50;92.50;;;;;;4992167;28;20034;-88
2020/12/09 04:00:33;;;;;;;35.17;22.63;;;3.50;92.60;;;;;;4999917;28;20032;-85
2020/12/09 04:03:00;;;;;;;32.35;21.65;;;3.60;92.60;;;;;;5011425;28;20115;-88
2020/12/09 04:05:26;;;;;;;33.30;21.48;;;3.50;92.60;;;;;;5010784;28;20117;-85
2020/12/09 04:07:52;;;;;;;35.53;24.20;;;3.60;92.60;;;;;;5011516;28;20132;-85
2020/12/09 04:10:23;;;;;;;38.58;24.75;;;3.60;92.60;;;;;;5011066;28;20021;-85
2020/12/09 04:12:49;;;;;;;38.92;24.48;;;3.60;92.60;;;;;;5011997;28;20502;-86
2020/12/09 04:15:19;;;;;;;38.28;25.05;;;3.60;92.60;;;;;;5009882;28;20161;-85
2020/12/09 04:17:48;;;;;;;40.58;25.88;;;3.60;92.60;;;;;;5011466;28;20033;-85
2020/12/09 04:20:14;;;;;;;38.95;24.63;;;3.70;92.60;;;;;;5010996;28;20029;-85
2020/12/09 04:22:45;;;;;;;40.85;25.67;;;3.70;92.70;;;;;;5012751;28;20426;-85
2020/12/09 04:25:13;;;;;;;40.00;26.38;;;3.70;92.60;;;;;;4996747;28;20038;-90
2020/12/09 04:27:39;;;;;;;42.40;27.45;;;3.70;92.90;;;;;;5010691;28;20034;-86
2020/12/09 04:30:05;;;;;;;43.92;26.92;;;3.70;92.60;;;;;;5011116;28;20052;-85
2020/12/09 04:32:31;;;;;;;44.80;27.77;;;3.70;92.60;;;;;;5011121;28;20022;-86
2020/12/09 04:34:58;;;;;;;46.00;28.27;;;3.70;92.60;;;;;;5011368;28;20033;-87
2020/12/09 04:37:27;;;;;;;44.95;27.75;;;3.80;92.70;;;;;;4991559;28;20450;-87
2020/12/09 04:40:04;;;;;;;48.15;28.60;;;3.80;92.70;;;;;;5006412;28;20046;-86
2020/12/09 04:42:32;;;;;;;44.72;27.27;;;3.80;92.70;;;;;;4992852;28;20453;-85
2020/12/09 04:45:04;;;;;;;48.45;29.60;;;3.80;92.70;;;;;;4994128;28;20027;-85
2020/12/09 04:47:43;;;;;;;45.35;27.45;;;3.80;92.60;;;;;;4991166;28;20041;-85
2020/12/09 04:50:13;;;;;;;50.75;31.13;;;3.80;92.60;;;;;;5006820;28;20022;-85
2020/12/09 04:52:48;;;;;;;47.20;29.30;;;3.80;92.60;;;;;;5008885;28;20079;-87
2020/12/09 04:55:16;;;;;;;50.50;31.63;;;3.80;92.60;;;;;;5010482;28;20099;-87
2020/12/09 04:58:14;;;;;;;48.00;30.30;;;3.80;92.60;;;;;;5013421;28;20029;-85
2020/12/09 05:00:42;;;;;;;51.05;30.95;;;3.80;92.60;;;;;;4994648;28;20026;-86
2020/12/09 05:03:19;;;;;;;54.03;32.97;;;3.80;92.60;;;;;;5017276;28;20033;-86
2020/12/09 05:05:51;;;;;;;54.25;32.97;;;3.80;92.80;;;;;;5014427;28;20029;-86
2020/12/09 05:08:21;;;;;;;49.83;29.88;;;3.70;92.50;;;;;;4997297;28;20036;-86
2020/12/09 05:10:51;;;;;;;49.53;30.70;;;3.80;92.60;;;;;;4990820;28;20101;-85
2020/12/09 05:13:25;;;;;;;49.75;30.33;;;3.80;92.60;;;;;;5000510;28;20722;-88
2020/12/09 05:15:56;;;;;;;47.25;30.33;;;3.80;92.60;;;;;;5013689;28;20560;-85
2020/12/09 05:18:41;;;;;;;49.80;31.17;;;3.80;92.60;;;;;;5014515;28;20387;-85
2020/12/09 05:21:13;;;;;;;50.97;30.52;;;3.80;92.50;;;;;;5014242;28;20478;-85
2020/12/09 05:23:53;;;;;;;51.08;31.42;;;3.80;92.50;;;;;;5014652;28;20140;-85
2020/12/09 05:26:35;;;;;;;54.35;32.20;;;3.80;92.50;;;;;;5013755;28;20084;-85
2020/12/09 05:29:15;;;;;;;50.28;30.70;;;3.80;92.50;;;;;;5015453;28;20087;-86
2020/12/09 05:31:57;;;;;;;54.10;31.45;;;3.80;92.50;;;;;;4997689;28;20030;-86
2020/12/09 05:34:22;;;;;;;52.90;31.48;;;3.80;92.50;;;;;;4995234;28;20113;-85
2020/12/09 05:37:04;;;;;;;51.03;31.73;;;3.80;92.50;;;;;;5008025;28;20117;-85
2020/12/09 05:39:31;;;;;;;53.30;31.30;;;3.80;92.60;;;;;;5003998;28;20109;-85
2020/12/09 05:41:57;;;;;;;53.05;32.65;;;3.80;92.60;;;;;;4994602;28;20465;-86
2020/12/09 05:44:24;;;;;;;54.63;32.78;;;3.80;92.60;;;;;;5014499;28;20463;-85
2020/12/09 05:47:01;;;;;;;47.63;30.25;;;3.80;92.50;;;;;;5011120;28;20030;-85
2020/12/09 05:49:31;;;;;;;52.40;31.90;;;3.80;92.50;;;;;;5014042;28;20029;-85
2020/12/09 05:52:19;;;;;;;51.63;31.38;;;3.80;92.60;;;;;;5013508;28;20092;-84
2020/12/09 05:54:50;;;;;;;50.45;31.20;;;3.80;92.50;;;;;;5013549;28;20030;-87
2020/12/09 05:57:21;;;;;;;53.78;32.28;;;3.80;92.50;;;;;;5013896;28;20022;-86
2020/12/09 05:59:53;;;;;;;54.45;33.28;;;3.80;92.80;;;;;;5013291;28;20442;-85
2020/12/09 06:02:20;;;;;;;54.75;32.58;;;3.80;92.50;;;;;;5013188;28;20026;-84
2020/12/09 06:04:49;;;;;;;52.42;31.33;;;3.80;92.50;;;;;;5013058;28;20116;-88
2020/12/09 06:07:19;;;;;;;57.47;33.67;;;3.80;92.50;;;;;;5001313;28;20034;-85
2020/12/09 06:10:13;;;;;;;57.35;33.63;;;3.80;92.50;;;;;;5000881;28;20018;-89
2020/12/09 06:12:52;;;;;;;58.28;34.50;;;3.80;92.50;;;;;;5004959;28;20356;-87
2020/12/09 06:15:26;;;;;;;58.88;34.30;;;3.80;92.50;;;;;;5002375;28;20050;-87
2020/12/09 06:18:22;;;;;;;56.75;34.03;;;3.80;92.50;;;;;;4996630;28;20021;-86
2020/12/09 06:20:50;;;;;;;61.08;34.22;;;3.80;92.50;;;;;;4996610;28;20045;-85
2020/12/09 06:23:18;;;;;;;58.40;33.47;;;3.80;92.50;;;;;;4994128;28;20113;-84
2020/12/09 06:25:47;;;;;;;59.58;33.78;;;3.80;92.50;;;;;;4994558;28;20041;-87
2020/12/09 06:28:23;;;;;;;59.63;33.50;;;3.80;92.50;;;;;;5004407;28;20042;-86
2020/12/09 06:30:53;;;;;;;56.28;33.92;;;3.80;92.50;;;;;;5005526;28;20386;-85
2020/12/09 06:33:31;;;;;;;61.40;34.15;;;3.80;92.40;;;;;;5005107;28;20026;-89
2020/12/09 06:36:18;;;;;;;59.03;33.63;;;3.80;92.50;;;;;;5001906;28;20022;-87
2020/12/09 06:39:08;;;;;;;62.45;35.38;;;3.80;92.50;;;;;;4998456;28;20026;-86
2020/12/09 06:41:44;;;;;;;61.47;34.75;;;3.80;92.50;;;;;;5003223;28;20403;-86
2020/12/09 06:44:39;;;;;;;56.90;32.42;;;3.80;92.50;;;;;;4992290;28;20030;-86
2020/12/09 06:47:13;;;;;;;57.25;33.80;;;3.80;92.50;;;;;;4992621;28;20026;-86
2020/12/09 06:49:42;;;;;;;58.13;34.20;;;3.80;92.50;;;;;;4994994;28;20037;-88
2020/12/09 06:52:11;;;;;;;56.85;33.15;;;3.80;92.50;;;;;;5007054;28;20098;-87
2020/12/09 06:54:43;;;;;;;60.20;34.85;;;3.80;92.50;;;;;;5003017;28;20034;-86
2020/12/09 06:57:12;;;;;;;59.22;35.45;;;3.90;92.50;;;;;;5003188;28;20033;-85
2020/12/09 06:59:37;;;;;;;55.20;32.60;;;3.80;92.50;;;;;;5012221;28;20105;-85
2020/12/09 07:02:10;;;;;;;54.58;33.65;;;3.80;92.50;;;;;;4998630;28;20026;-85
2020/12/09 07:04:59;;;;;;;56.58;34.38;;;3.90;92.50;;;;;;5002387;28;20102;-86
2020/12/09 07:07:54;;;;;;;59.80;35.10;;;3.80;92.50;;;;;;5001084;28;20030;-86
2020/12/09 07:10:21;;;;;;;54.60;34.80;;;3.90;92.50;;;;;;5014660;28;20038;-86
2020/12/09 07:15:56;;;;;;;59.35;33.78;;;3.80;92.50;;;;;;5002828;28;20077;-87
2020/12/09 07:18:24;;;;;;;67.32;35.25;;;3.80;92.40;;;;;;4997287;28;20050;-85
2020/12/09 07:20:55;;;;;;;66.65;37.58;;;3.80;92.40;;;;;;4981874;28;20030;-87
2020/12/09 07:23:21;;;;;;;67.60;35.90;;;3.80;92.40;;;;;;5007920;28;20514;-85
2020/12/09 07:25:54;;;;;;;96.40;33.65;;;3.70;92.70;;;;;;5006880;28;20097;-88
2020/12/09 07:28:21;;;;;;;53.90;29.90;;;3.70;92.30;;;;;;5004913;28;20038;-90
2020/12/09 07:30:52;;;;;;;51.50;28.55;;;3.60;92.30;;;;;;5001127;28;20468;-86
2020/12/09 07:33:31;;;;;;;63.10;27.75;;;3.60;92.30;;;;;;5004059;28;20097;-85
2020/12/09 07:36:39;;;;;;;;;;;;;;;;;;;;;
2020/12/09 07:39:40;;;;;;;55.30;25.75;;;3.50;92.20;;;;;;4995071;28;20044;-87
2020/12/09 07:42:08;;;;;;;62.88;26.40;;;3.40;92.20;;;;;;4990350;28;20383;-86
2020/12/09 07:44:48;;;;;;;45.72;24.35;;;3.40;92.20;;;;;;5001941;28;20026;-87
2020/12/09 07:47:36;;;;;;;48.83;26.05;;;3.40;92.20;;;;;;5000917;28;20034;-88
2020/12/09 07:50:23;;;;;;;51.45;26.90;;;3.30;92.10;;;;;;5001967;28;20460;-87
2020/12/09 07:52:57;;;;;;;55.58;28.98;;;3.30;92.10;;;;;;5000269;28;20109;-89
2020/12/09 07:55:34;;;;;;;51.55;27.05;;;3.20;92.10;;;;;;5005767;28;20026;-87
2020/12/09 07:58:24;;;;;;;45.50;24.73;;;3.10;92.00;;;;;;5036724;28;20041;-85
2020/12/09 08:00:55;;;;;;;48.47;27.20;;;3.10;92.00;;;;;;5000284;28;20026;-86
2020/12/09 08:03:35;;;;;;;52.05;26.40;;;3.10;92.00;;;;;;4999949;28;20026;-85
2020/12/09 08:06:08;;;;;;;51.97;27.02;;;3.00;91.90;;;;;;4995528;28;20360;-86
2020/12/09 08:08:51;;;;;;;50.83;26.63;;;3.00;91.90;;;;;;4988394;28;20047;-86
2020/12/09 08:11:19;;;;;;;55.22;27.58;;;2.90;91.80;;;;;;5005346;28;20119;-87
2020/12/09 08:13:47;;;;;;;48.58;25.98;;;2.90;91.90;;;;;;5006559;28;20028;-85
2020/12/09 08:16:16;;;;;;;48.42;26.85;;;2.90;91.80;;;;;;5010125;28;20050;-88
2020/12/09 08:18:50;;;;;;;49.10;28.00;;;2.90;91.80;;;;;;4995172;28;20061;-85
2020/12/09 08:21:32;;;;;;;44.83;24.88;;;2.90;91.80;;;;;;5010844;28;20100;-86
2020/12/09 08:24:21;;;;;;;49.63;25.60;;;2.90;91.80;;;;;;5010517;28;20052;-88
2020/12/09 08:26:54;;;;;;;48.72;27.02;;;2.80;91.80;;;;;;5007085;28;20030;-86
2020/12/09 08:29:30;;;;;;;;;;;;;;;;;;;;;
2020/12/09 08:32:10;;;;;;;51.15;27.33;;;2.80;91.80;;;;;;5011121;28;20033;-87
2020/12/09 08:34:40;;;;;;;46.95;27.48;;;2.80;91.90;;;;;;4992386;28;20031;-86
2020/12/09 08:37:31;;;;;;;50.55;30.92;;;2.80;91.80;;;;;;5009456;28;20048;-86
2020/12/09 08:40:02;;;;;;;52.30;28.73;;;2.80;91.90;;;;;;4993083;28;20056;-86
2020/12/09 08:43:04;;;;;;;;;;;;;;;;;;;;;
2020/12/09 08:45:35;;;;;;;50.03;26.00;;;2.70;91.80;;;;;;4993375;28;20391;-88
2020/12/09 08:48:08;;;;;;;52.28;27.38;;;2.70;91.80;;;;;;5007219;28;20038;-86
2020/12/09 08:50:39;;;;;;;57.38;29.73;;;2.70;91.80;;;;;;5011387;28;20046;-85
2020/12/09 08:53:34;;;;;;;47.63;27.33;;;2.70;91.80;;;;;;4985841;28;20081;-86
2020/12/09 08:55:59;;;;;;;48.30;27.95;;;2.70;91.80;;;;;;4996121;28;20033;-86
2020/12/09 08:58:31;;;;;;;43.40;26.58;;;2.70;91.80;;;;;;5000628;28;20049;-88
2020/12/09 09:01:06;;;;;;;41.47;26.23;;;2.70;91.80;;;;;;5007402;28;20026;-89
2020/12/09 09:03:44;;;;;;;42.95;26.33;;;2.70;91.80;;;;;;5009930;28;20054;-87
2020/12/09 09:06:30;;;;;;;;;;;;;;;;;;;;;
2020/12/09 09:09:06;;;;;;;46.92;27.85;;;2.70;91.80;;;;;;4994672;28;20039;-87
2020/12/09 09:11:40;;;;;;;42.33;27.00;;;2.70;91.80;;;;;;4990856;28;20038;-86
2020/12/09 09:14:09;;;;;;;42.63;26.40;;;2.70;91.80;;;;;;4989479;28;20042;-86
2020/12/09 09:16:41;;;;;;;44.47;26.17;;;2.70;91.80;;;;;;4975025;28;20141;-87
2020/12/09 09:19:07;;;;;;;43.70;26.88;;;2.70;91.70;;;;;;4999973;28;20495;-86
2020/12/09 09:21:43;;;;;;;;;;;;;;;;;;;;;
2020/12/09 09:24:13;;;;;;;43.50;27.73;;;2.70;91.60;;;;;;5001854;28;20396;-87
2020/12/09 09:26:44;;;;;;;41.25;26.48;;;2.60;91.60;;;;;;5008553;28;20026;-85
2020/12/09 09:29:35;;;;;;;45.10;26.40;;;2.70;91.60;;;;;;4989802;28;20075;-88
2020/12/09 09:32:13;;;;;;;;;;;;;;;;;;;;;
2020/12/09 09:35:21;;;;;;;;;;;;;;;;;;;;;
2020/12/09 09:37:48;;;;;;;45.83;27.42;;;2.60;91.50;;;;;;4993811;28;20040;-85
2020/12/09 09:40:23;;;;;;;44.05;26.50;;;2.60;91.50;;;;;;4994084;28;20041;-86
2020/12/09 09:42:54;;;;;;;42.30;26.83;;;2.60;91.50;;;;;;4988026;28;20030;-87
2020/12/09 09:45:21;;;;;;;45.00;27.10;;;2.60;91.50;;;;;;5009496;28;20097;-87
2020/12/09 09:47:53;;;;;;;40.00;26.83;;;2.50;91.50;;;;;;5013130;28;20030;-87
2020/12/09 09:50:20;;;;;;;42.28;26.80;;;2.50;91.50;;;;;;5004677;28;20030;-85
2020/12/09 09:53:03;;;;;;;42.72;26.92;;;2.50;91.60;;;;;;5014688;28;20379;-86
2020/12/09 09:55:29;;;;;;;43.00;25.80;;;2.50;91.60;;;;;;5009995;28;20033;-85
2020/12/09 09:58:19;;;;;;;40.05;26.38;;;2.50;91.60;;;;;;4998289;28;20403;-85
2020/12/09 10:00:50;;;;;;;42.80;27.27;;;2.50;91.60;;;;;;5020113;28;20033;-85
2020/12/09 10:03:28;;;;;;;44.25;28.00;;;2.50;91.60;;;;;;5012157;28;20073;-84
2020/12/09 10:06:09;;;;;;;45.05;27.38;;;2.50;91.60;;;;;;5009689;28;20035;-86
2020/12/09 10:08:37;;;;;;;49.58;28.85;;;2.50;91.60;;;;;;5012322;28;20097;-85
2020/12/09 10:11:05;;;;;;;44.72;28.02;;;2.50;91.60;;;;;;5010149;28;20025;-85
2020/12/09 10:13:34;;;;;;;44.90;26.85;;;2.60;91.60;;;;;;5009797;28;20056;-85
2020/12/09 10:16:05;;;;;;;49.13;28.45;;;2.50;91.60;;;;;;4999056;28;20058;-87
2020/12/09 10:18:35;;;;;;;45.78;28.80;;;2.60;91.60;;;;;;4994806;28;20498;-86
2020/12/09 10:21:06;;;;;;;45.15;27.10;;;2.60;91.60;;;;;;5011343;28;20139;-85
2020/12/09 10:23:35;;;;;;;44.63;27.60;;;2.60;91.60;;;;;;5012807;28;20084;-84
2020/12/09 10:26:01;;;;;;;47.75;28.48;;;2.60;91.90;;;;;;5012367;28;20030;-86
2020/12/09 10:28:49;;;;;;;46.63;28.40;;;2.60;91.60;;;;;;5007802;28;20100;-85
2020/12/09 10:31:25;;;;;;;47.53;27.52;;;2.60;91.60;;;;;;5013716;28;20530;-84
2020/12/09 10:33:53;;;;;;;45.95;27.45;;;2.60;91.60;;;;;;5014996;28;20092;-84
2020/12/09 10:36:32;;;;;;;;;;;;;;;;;;;;;
2020/12/09 10:39:01;;;;;;;46.72;28.85;;;2.60;91.70;;;;;;5027321;28;20030;-87
2020/12/09 10:41:29;;;;;;;46.63;27.15;;;2.60;91.60;;;;;;5012924;28;20022;-85
2020/12/09 10:44:03;;;;;;;49.33;29.02;;;2.60;91.60;;;;;;5004022;28;20026;-86
2020/12/09 10:46:36;;;;;;;47.75;28.92;;;2.60;91.60;;;;;;5002660;28;20095;-87
2020/12/09 10:49:12;;;;;;;42.17;25.45;;;2.60;91.60;;;;;;4978712;28;20044;-88
2020/12/09 10:51:57;;;;;;;44.58;26.85;;;2.60;91.50;;;;;;4999019;28;20056;-84
2020/12/09 10:54:25;;;;;;;42.70;26.77;;;2.60;91.50;;;;;;5008383;28;20414;-86
2020/12/09 10:57:30;;;;;;;;;;;;;;;;;;;;;
2020/12/09 10:59:56;;;;;;;43.30;26.00;;;2.60;91.40;;;;;;4999586;28;20030;-87
2020/12/09 11:02:29;;;;;;;45.15;27.52;;;2.50;91.40;;;;;;5003930;28;20049;-86
2020/12/09 11:05:06;;;;;;;46.00;27.30;;;2.60;91.40;;;;;;5003106;28;20431;-87
2020/12/09 11:07:38;;;;;;;47.97;28.08;;;2.50;91.60;;;;;;4995651;28;20125;-87
2020/12/09 11:10:42;;;;;;;;;;;;;;;;;;;;;
2020/12/09 11:13:11;;;;;;;41.92;25.20;;;2.60;91.40;;;;;;5009633;28;20028;-85
2020/12/09 11:16:03;;;;;;;42.78;25.40;;;2.60;91.30;;;;;;4994485;28;20123;-85
2020/12/09 11:18:28;;;;;;;43.65;26.15;;;2.60;91.30;;;;;;5002250;28;20046;-85
2020/12/09 11:24:00;;;;;;;41.28;23.08;;;2.60;91.30;;;;;;4957982;28;20034;-84
2020/12/09 11:26:30;;;;;;;43.38;24.25;;;2.60;91.30;;;;;;4995245;28;20121;-86
2020/12/09 11:28:59;;;;;;;40.80;24.08;;;2.60;91.20;;;;;;4995814;28;20094;-86
2020/12/09 11:31:45;;;;;;;44.08;24.33;;;2.60;91.20;;;;;;4999758;28;20104;-86
2020/12/09 11:34:25;;;;;;;41.10;23.83;;;2.60;91.20;;;;;;5004692;28;20030;-84
2020/12/09 11:37:07;;;;;;;48.47;25.75;;;2.60;91.20;;;;;;5011503;28;20040;-87
2020/12/09 11:39:41;;;;;;;45.83;24.70;;;2.60;91.20;;;;;;4993593;28;20034;-86
2020/12/09 11:42:12;;;;;;;45.10;25.30;;;2.60;91.20;;;;;;5009849;28;20038;-85
2020/12/09 11:44:50;;;;;;;47.20;25.20;;;2.60;91.20;;;;;;5011485;28;20181;-87
2020/12/09 11:47:16;;;;;;;52.28;26.60;;;2.60;91.20;;;;;;4980461;28;20030;-86
2020/12/09 11:49:42;;;;;;;52.03;27.25;;;2.70;91.30;;;;;;5011637;28;20029;-86
2020/12/09 11:52:39;;;;;;;49.50;26.02;;;2.60;91.20;;;;;;5007150;28;20042;-87
2020/12/09 11:55:08;;;;;;;53.92;28.35;;;2.70;91.30;;;;;;5000506;28;20061;-87
2020/12/09 11:57:56;;;;;;;55.42;29.00;;;2.70;91.30;;;;;;4992236;28;20041;-87
2020/12/09 12:00:34;;;;;;;;;;;;;;;;;;;;;
2020/12/09 12:03:33;;;;;;;;;;;;;;;;;;;;;
2020/12/09 12:06:36;;;;;;;67.43;32.70;;;2.70;91.30;;;;;;4994613;28;20044;-86
2020/12/09 12:09:22;;;;;;;65.90;32.15;;;2.70;91.30;;;;;;5033991;28;20041;-87
2020/12/09 12:11:58;;;;;;;66.78;31.85;;;2.70;91.30;;;;;;4991972;28;20029;-86
2020/12/09 12:14:27;;;;;;;61.40;31.63;;;2.70;91.30;;;;;;5008457;28;20101;-86
2020/12/09 12:17:01;;;;;;;74.60;35.20;;;2.80;91.30;;;;;;5002917;28;20133;-86
2020/12/09 12:19:29;;;;;;;67.03;33.35;;;2.80;91.30;;;;;;5006601;28;20030;-86
2020/12/09 12:22:22;;;;;;;81.18;41.03;;;2.80;91.30;;;;;;5000284;28;20022;-87
2020/12/09 12:24:50;;;;;;;69.88;36.40;;;2.80;91.40;;;;;;4999561;28;20037;-86
2020/12/09 12:27:32;;;;;;;64.40;32.92;;;2.80;91.40;;;;;;5007052;28;20013;-87
2020/12/09 12:30:10;;;;;;;65.93;32.03;;;2.90;91.40;;;;;;4997098;28;20108;-86
2020/12/09 12:32:48;;;;;;;66.95;33.83;;;2.80;91.40;;;;;;5004770;28;20036;-85
2020/12/09 12:35:26;;;;;;;;;;;;;;;;;;;;;
2020/12/09 12:38:05;;;;;;;71.10;36.58;;;2.90;91.30;;;;;;5007759;28;20492;-86
2020/12/09 12:40:34;;;;;;;71.13;36.25;;;2.90;91.30;;;;;;5008026;28;20073;-86
2020/12/09 12:43:05;;;;;;;72.50;37.10;;;3.00;91.40;;;;;;5006617;28;20026;-86
2020/12/09 12:45:36;;;;;;;66.30;34.80;;;3.00;91.40;;;;;;5039555;28;20471;-86
2020/12/09 12:48:18;;;;;;;68.57;35.30;;;3.00;91.40;;;;;;5013014;28;20034;-88
2020/12/09 12:50:56;;;;;;;69.05;35.17;;;3.00;91.40;;;;;;5010769;28;20082;-85
2020/12/09 12:53:42;;;;;;;74.55;38.35;;;3.10;91.40;;;;;;4989351;28;20085;-86
2020/12/09 12:56:18;;;;;;;75.00;37.95;;;3.00;91.30;;;;;;4987649;28;20033;-88
2020/12/09 12:58:54;;;;;;;72.78;37.42;;;3.10;91.30;;;;;;5003711;28;20053;-86
2020/12/09 13:05:15;;;;;;;69.78;37.35;;;3.10;91.30;;;;;;4955232;28;20041;-88
2020/12/09 13:07:49;;;;;;;64.80;34.75;;;3.10;91.20;;;;;;4982161;28;20042;-86
2020/12/09 13:10:26;;;;;;;61.38;32.22;;;3.10;91.20;;;;;;4995080;28;20037;-86
2020/12/09 13:13:02;;;;;;;;;;;;;;;;;;;;;
2020/12/09 13:15:41;;;;;;;63.33;33.55;;;3.10;91.20;;;;;;5008165;28;20050;-86
2020/12/09 13:18:08;;;;;;;58.80;32.40;;;3.10;91.20;;;;;;4994055;28;20373;-88
2020/12/09 13:20:33;;;;;;;58.83;31.75;;;3.10;91.20;;;;;;5008198;28;20113;-84
2020/12/09 13:23:25;;;;;;;54.88;30.55;;;3.10;91.20;;;;;;5009124;28;20101;-87
2020/12/09 13:25:58;;;;;;;56.60;30.75;;;3.10;91.20;;;;;;5001174;28;20541;-86
2020/12/09 13:28:27;;;;;;;56.45;31.75;;;3.10;91.20;;;;;;4992734;28;20037;-86
2020/12/09 13:30:52;;;;;;;59.33;32.08;;;3.10;91.20;;;;;;5004140;28;20083;-86
2020/12/09 13:33:45;;;;;;;57.78;32.03;;;3.10;91.20;;;;;;5007224;28;20071;-86
2020/12/09 13:36:13;;;;;;;50.28;29.77;;;3.20;91.20;;;;;;5010321;28;20030;-91